createdAt,value
2018-11-23T00:00:32.922Z,8.60
2018-11-23T00:03:07.243Z,8.50
2018-11-23T00:05:41.523Z,8.50
2018-11-23T00:08:15.763Z,8.40
2018-11-23T00:10:50.002Z,8.40
2018-11-23T00:13:24.246Z,8.50
2018-11-23T00:15:58.490Z,8.50
2018-11-23T00:18:32.764Z,8.50
2018-11-23T00:21:07.030Z,8.50
2018-11-23T00:23:41.290Z,8.50
2018-11-23T00:26:15.526Z,8.40
2018-11-23T00:28:49.781Z,8.40
2018-11-23T00:31:24.035Z,8.40
2018-11-23T00:33:58.297Z,8.40
2018-11-23T00:36:32.643Z,8.30
2018-11-23T00:39:07.250Z,8.30
2018-11-23T00:41:41.559Z,8.30
2018-11-23T00:44:15.813Z,8.40
2018-11-23T00:46:50.148Z,8.40
2018-11-23T00:49:24.395Z,8.50
2018-11-23T00:51:58.634Z,8.40
2018-11-23T00:54:32.879Z,8.40
2018-11-23T00:57:07.154Z,8.40
2018-11-23T00:59:41.414Z,8.50
2018-11-23T01:02:15.692Z,8.50
2018-11-23T01:04:49.974Z,8.50
2018-11-23T01:07:24.214Z,8.50
2018-11-23T01:09:58.472Z,8.50
2018-11-23T01:12:32.770Z,8.50
2018-11-23T01:15:07.509Z,8.50
2018-11-23T01:17:41.789Z,8.50
2018-11-23T01:20:18.675Z,8.50
2018-11-23T01:22:53.485Z,8.50
2018-11-23T01:25:28.350Z,8.50
2018-11-23T01:28:02.607Z,8.50
2018-11-23T01:30:36.864Z,8.50
2018-11-23T01:33:11.208Z,8.50
2018-11-23T01:35:45.459Z,8.50
2018-11-23T01:38:19.696Z,8.50
2018-11-23T01:40:53.986Z,8.60
2018-11-23T01:43:28.207Z,8.60
2018-11-23T01:46:02.450Z,8.60
2018-11-23T01:48:36.711Z,8.60
2018-11-23T01:51:10.951Z,8.60
2018-11-23T01:53:45.226Z,8.60
2018-11-23T01:56:19.462Z,8.70
2018-11-23T01:58:53.750Z,8.60
2018-11-23T02:01:28.023Z,8.60
2018-11-23T02:04:02.602Z,8.60
2018-11-23T02:06:36.870Z,8.60
2018-11-23T02:09:11.139Z,8.50
2018-11-23T02:11:45.391Z,8.50
2018-11-23T02:14:19.746Z,8.50
2018-11-23T02:16:54.029Z,8.50
2018-11-23T02:19:28.265Z,8.40
2018-11-23T02:22:02.517Z,8.40
2018-11-23T02:24:36.774Z,8.50
2018-11-23T02:27:10.994Z,8.50
2018-11-23T02:29:45.232Z,8.50
2018-11-23T02:32:19.470Z,8.50
2018-11-23T02:34:53.762Z,8.50
2018-11-23T02:37:28.006Z,8.50
2018-11-23T02:40:02.290Z,8.60
2018-11-23T02:42:36.961Z,8.60
2018-11-23T02:45:14.650Z,8.60
2018-11-23T02:47:49.246Z,8.60
2018-11-23T02:50:23.511Z,8.50
2018-11-23T02:52:57.765Z,8.50
2018-11-23T02:55:32.034Z,8.40
2018-11-23T02:58:06.405Z,8.40
2018-11-23T03:00:40.642Z,8.40
2018-11-23T03:03:14.913Z,8.50
2018-11-23T03:05:49.226Z,8.50
2018-11-23T03:08:23.497Z,8.50
2018-11-23T03:10:57.761Z,8.50
2018-11-23T03:13:32.050Z,8.50
2018-11-23T03:16:06.330Z,8.50
2018-11-23T03:18:40.571Z,8.50
2018-11-23T03:21:14.826Z,8.50
2018-11-23T03:23:49.073Z,8.50
2018-11-23T03:26:23.993Z,8.50
2018-11-23T03:28:58.247Z,8.50
2018-11-23T03:31:32.504Z,8.50
2018-11-23T03:34:06.763Z,8.50
2018-11-23T03:36:41.028Z,8.40
2018-11-23T03:39:15.290Z,8.40
2018-11-23T03:41:49.547Z,8.50
2018-11-23T03:44:23.836Z,8.50
2018-11-23T03:46:58.076Z,8.40
2018-11-23T03:49:32.319Z,8.40
2018-11-23T03:52:06.691Z,8.30
2018-11-23T03:54:40.994Z,8.30
2018-11-23T03:57:15.273Z,8.30
2018-11-23T03:59:49.539Z,8.30
2018-11-23T04:02:23.822Z,8.30
2018-11-23T04:04:58.417Z,8.30
2018-11-23T04:07:32.677Z,8.30
2018-11-23T04:10:08.059Z,8.30
2018-11-23T04:12:42.742Z,8.20
2018-11-23T04:15:17.009Z,8.30
2018-11-23T04:17:51.237Z,8.30
2018-11-23T04:20:25.501Z,8.30
2018-11-23T04:22:59.739Z,8.30
2018-11-23T04:25:33.970Z,8.30
2018-11-23T04:28:08.223Z,8.30
2018-11-23T04:30:42.487Z,8.30
2018-11-23T04:33:16.981Z,8.30
2018-11-23T04:35:51.258Z,8.40
2018-11-23T04:38:25.555Z,8.40
2018-11-23T04:40:59.821Z,8.30
2018-11-23T04:43:34.070Z,8.20
2018-11-23T04:46:08.310Z,8.20
2018-11-23T04:48:42.558Z,8.10
2018-11-23T04:51:16.839Z,8.10
2018-11-23T04:53:51.131Z,8.00
2018-11-23T04:56:25.326Z,8.00
2018-11-23T04:58:59.573Z,8.10
2018-11-23T05:01:33.834Z,8.10
2018-11-23T05:04:08.111Z,8.10
2018-11-23T05:06:42.374Z,8.10
2018-11-23T05:09:16.643Z,8.10
2018-11-23T05:11:50.874Z,8.20
2018-11-23T05:14:25.146Z,8.20
2018-11-23T05:16:59.410Z,8.20
2018-11-23T05:19:33.668Z,8.20
2018-11-23T05:22:07.943Z,8.20
2018-11-23T05:24:42.208Z,8.20
2018-11-23T05:27:16.509Z,8.10
2018-11-23T05:29:50.898Z,8.10
2018-11-23T05:32:25.168Z,8.10
2018-11-23T05:34:59.454Z,8.10
2018-11-23T05:37:33.698Z,8.10
2018-11-23T05:40:09.914Z,8.20
2018-11-23T05:42:44.229Z,8.20
2018-11-23T05:45:19.897Z,8.20
2018-11-23T05:47:54.161Z,8.20
2018-11-23T05:50:28.420Z,8.20
2018-11-23T05:53:02.676Z,8.20
2018-11-23T05:55:36.921Z,8.20
2018-11-23T05:58:11.330Z,8.20
2018-11-23T06:00:45.660Z,8.20
2018-11-23T06:03:19.927Z,8.20
2018-11-23T06:05:54.202Z,8.10
2018-11-23T06:08:28.481Z,8.10
2018-11-23T06:11:02.801Z,8.10
2018-11-23T06:13:37.044Z,8.10
2018-11-23T06:16:11.330Z,8.10
2018-11-23T06:18:45.826Z,8.10
2018-11-23T06:21:20.969Z,8.10
2018-11-23T06:23:55.258Z,8.10
2018-11-23T06:26:30.307Z,8.00
2018-11-23T06:29:04.624Z,8.00
2018-11-23T06:31:38.865Z,8.00
2018-11-23T06:34:13.102Z,8.00
2018-11-23T06:36:47.371Z,7.90
2018-11-23T06:39:21.601Z,7.90
2018-11-23T06:41:55.859Z,7.90
2018-11-23T06:44:30.147Z,7.90
2018-11-23T06:47:04.577Z,7.80
2018-11-23T06:49:38.816Z,7.80
2018-11-23T06:52:13.106Z,7.80
2018-11-23T06:54:47.359Z,7.80
2018-11-23T06:57:21.620Z,7.80
2018-11-23T06:59:55.888Z,7.80
2018-11-23T07:02:30.149Z,7.80
2018-11-23T07:05:05.039Z,7.80
2018-11-23T07:07:39.382Z,7.70
2018-11-23T07:10:13.652Z,7.70
2018-11-23T07:12:48.243Z,7.70
2018-11-23T07:15:22.555Z,7.70
2018-11-23T07:17:56.883Z,7.60
2018-11-23T07:20:31.142Z,7.60
2018-11-23T07:23:05.706Z,7.60
2018-11-23T07:25:40.038Z,7.60
2018-11-23T07:28:15.690Z,7.70
2018-11-23T07:30:54.647Z,7.70
2018-11-23T07:33:28.917Z,7.70
2018-11-23T07:36:03.160Z,7.70
2018-11-23T07:38:37.419Z,7.80
2018-11-23T07:41:22.762Z,7.80
2018-11-23T07:43:57.019Z,7.80
2018-11-23T07:46:31.251Z,7.80
2018-11-23T07:49:06.134Z,7.70
2018-11-23T07:51:40.387Z,7.70
2018-11-23T07:54:14.628Z,7.70
2018-11-23T07:56:48.885Z,7.70
2018-11-23T07:59:23.131Z,7.70
2018-11-23T08:01:57.355Z,7.70
2018-11-23T08:04:31.606Z,7.70
2018-11-23T08:07:06.366Z,7.70
2018-11-23T08:09:41.354Z,7.70
2018-11-23T08:12:15.622Z,7.70
2018-11-23T08:14:49.938Z,7.70
2018-11-23T08:17:24.199Z,7.70
2018-11-23T08:19:58.442Z,7.70
2018-11-23T08:22:32.698Z,7.70
2018-11-23T08:25:08.153Z,7.70
2018-11-23T08:27:43.103Z,7.60
2018-11-23T08:30:23.774Z,7.60
2018-11-23T08:32:58.406Z,7.60
2018-11-23T08:35:32.635Z,7.60
2018-11-23T08:38:06.901Z,7.60
2018-11-23T08:40:41.179Z,7.60
2018-11-23T08:43:15.423Z,7.60
2018-11-23T08:45:49.909Z,7.60
2018-11-23T08:48:24.202Z,7.60
2018-11-23T08:50:58.462Z,7.60
2018-11-23T08:53:34.682Z,7.60
2018-11-23T08:56:08.927Z,7.60
2018-11-23T08:58:43.240Z,7.50
2018-11-23T09:01:17.535Z,7.50
2018-11-23T09:03:51.778Z,7.60
2018-11-23T09:06:26.010Z,7.60
2018-11-23T09:09:00.250Z,7.60
2018-11-23T09:11:34.526Z,7.50
2018-11-23T09:14:09.810Z,7.50
2018-11-23T09:16:44.123Z,7.50
2018-11-23T09:19:19.605Z,7.50
2018-11-23T09:21:54.620Z,7.50
2018-11-23T09:24:31.509Z,7.50
2018-11-23T09:30:01.254Z,7.60
2018-11-23T09:32:35.520Z,7.60
2018-11-23T09:35:09.881Z,7.60
2018-11-23T09:37:44.495Z,7.60
2018-11-23T09:40:23.204Z,7.60
2018-11-23T09:42:57.750Z,7.50
2018-11-23T09:45:33.046Z,7.50
2018-11-23T09:48:07.588Z,7.50
2018-11-23T09:50:41.857Z,7.50
2018-11-23T09:53:16.115Z,7.50
2018-11-23T09:55:50.346Z,7.60
2018-11-23T09:58:43.356Z,7.60
2018-11-23T10:03:55.108Z,7.70
2018-11-23T10:06:29.354Z,7.60
2018-11-23T10:09:04.496Z,7.60
2018-11-23T10:11:38.742Z,7.60
2018-11-23T10:14:13.011Z,7.50
2018-11-23T10:16:47.313Z,7.50
2018-11-23T10:19:27.336Z,7.50
2018-11-23T10:22:01.612Z,7.50
2018-11-23T10:24:35.942Z,7.50
2018-11-23T10:27:10.205Z,7.50
2018-11-23T10:29:45.193Z,7.50
2018-11-23T10:32:28.799Z,7.50
2018-11-23T10:35:03.067Z,7.60
2018-11-23T10:37:37.413Z,7.60
2018-11-23T10:40:15.170Z,7.60
2018-11-23T10:42:49.496Z,7.70
2018-11-23T10:45:25.553Z,7.70
2018-11-23T10:48:00.790Z,7.70
2018-11-23T10:50:36.546Z,7.70
2018-11-23T10:53:13.366Z,7.70
2018-11-23T10:55:47.605Z,7.80
2018-11-23T10:58:21.827Z,7.80
2018-11-23T11:01:01.398Z,7.80
2018-11-23T11:03:35.965Z,7.80
2018-11-23T11:06:15.560Z,7.80
2018-11-23T11:08:49.824Z,7.80
2018-11-23T11:11:24.078Z,7.90
2018-11-23T11:13:58.333Z,7.90
2018-11-23T11:16:32.604Z,7.90
2018-11-23T11:19:07.430Z,7.90
2018-11-23T11:21:41.671Z,7.90
2018-11-23T11:24:15.930Z,7.90
2018-11-23T11:26:50.208Z,7.90
2018-11-23T11:29:24.443Z,7.90
2018-11-23T11:31:58.678Z,7.90
2018-11-23T11:34:32.934Z,7.90
2018-11-23T11:37:07.174Z,7.90
2018-11-23T11:39:41.411Z,7.90
2018-11-23T11:42:15.671Z,7.90
2018-11-23T11:44:50.047Z,7.90
2018-11-23T11:47:24.290Z,8.00
2018-11-23T11:49:59.207Z,8.10
2018-11-23T11:52:32.823Z,8.20
2018-11-23T11:55:08.287Z,8.20
2018-11-23T11:57:43.007Z,8.20
2018-11-23T12:00:19.633Z,8.20
2018-11-23T12:02:54.312Z,8.20
2018-11-23T12:05:28.554Z,8.20
2018-11-23T12:08:02.815Z,8.30
2018-11-23T12:10:37.085Z,8.20
2018-11-23T12:13:11.370Z,8.20
2018-11-23T12:15:45.666Z,8.20
2018-11-23T12:18:19.919Z,8.20
2018-11-23T12:20:54.166Z,8.20
2018-11-23T12:23:28.452Z,8.20
2018-11-23T12:26:02.822Z,8.20
2018-11-23T12:28:37.170Z,8.20
2018-11-23T12:31:11.502Z,8.10
2018-11-23T12:33:45.952Z,8.10
2018-11-23T12:36:20.471Z,8.10
2018-11-23T12:38:54.753Z,8.10
2018-11-23T12:41:28.999Z,8.10
2018-11-23T12:44:03.282Z,8.00
2018-11-23T12:46:37.580Z,8.00
2018-11-23T12:49:11.879Z,8.00
2018-11-23T12:51:46.114Z,8.00
2018-11-23T12:54:27.418Z,8.10
2018-11-23T12:57:01.874Z,8.10
2018-11-23T12:59:36.228Z,8.10
2018-11-23T13:02:10.591Z,8.00
2018-11-23T13:04:44.853Z,8.00
2018-11-23T13:07:19.116Z,8.00
2018-11-23T13:09:53.384Z,8.00
2018-11-23T13:12:27.654Z,8.00
2018-11-23T13:15:01.945Z,8.00
2018-11-23T13:17:36.295Z,7.90
2018-11-23T13:20:12.527Z,7.90
2018-11-23T13:22:46.821Z,7.90
2018-11-23T13:25:22.703Z,8.00
2018-11-23T13:27:57.197Z,8.00
2018-11-23T13:30:33.085Z,8.00
2018-11-23T13:33:07.331Z,8.00
2018-11-23T13:35:41.610Z,8.00
2018-11-23T13:38:15.882Z,8.00
2018-11-23T13:40:50.137Z,8.00
2018-11-23T13:43:24.382Z,8.00
2018-11-23T13:45:58.622Z,8.00
2018-11-23T13:48:32.908Z,8.00
2018-11-23T13:51:07.151Z,8.00
2018-11-23T13:53:41.401Z,8.00
2018-11-23T13:56:15.693Z,7.90
2018-11-23T13:58:49.918Z,7.90
2018-11-23T14:01:24.218Z,7.90
2018-11-23T14:03:58.470Z,7.90
2018-11-23T14:06:32.718Z,7.90
2018-11-23T14:09:10.142Z,8.00
2018-11-23T14:11:44.396Z,7.90
2018-11-23T14:14:18.663Z,7.90
2018-11-23T14:16:53.030Z,7.90
2018-11-23T14:19:28.000Z,7.90
2018-11-23T14:22:02.286Z,7.90
2018-11-23T14:24:36.514Z,7.90
2018-11-23T14:27:10.767Z,8.00
2018-11-23T14:29:45.019Z,8.00
2018-11-23T14:32:19.731Z,8.00
2018-11-23T14:34:53.534Z,8.00
2018-11-23T14:37:27.818Z,8.00
2018-11-23T14:40:02.061Z,8.00
2018-11-23T14:42:36.758Z,8.00
2018-11-23T14:45:17.353Z,8.00
2018-11-23T14:47:52.375Z,8.00
2018-11-23T14:50:28.387Z,8.10
2018-11-23T14:53:04.143Z,8.00
2018-11-23T14:55:38.433Z,8.10
2018-11-23T14:58:12.691Z,8.10
2018-11-23T15:00:46.949Z,8.20
2018-11-23T15:03:21.198Z,8.20
2018-11-23T15:05:55.559Z,8.20
2018-11-23T15:08:29.831Z,8.30
2018-11-23T15:11:04.102Z,8.20
2018-11-23T15:13:38.440Z,8.20
2018-11-23T15:16:12.708Z,8.20
2018-11-23T15:18:46.995Z,8.20
2018-11-23T15:21:21.282Z,8.20
2018-11-23T15:23:55.547Z,8.20
2018-11-23T15:26:29.817Z,8.10
2018-11-23T15:29:04.114Z,8.20
2018-11-23T15:31:38.344Z,8.20
2018-11-23T15:34:12.646Z,8.20
2018-11-23T15:36:52.155Z,8.20
2018-11-23T15:39:26.440Z,8.20
2018-11-23T15:42:00.759Z,8.20
2018-11-23T15:44:36.127Z,8.30
2018-11-23T15:47:10.400Z,8.30
2018-11-23T15:49:44.723Z,8.30
2018-11-23T15:54:53.237Z,8.30
2018-11-23T15:57:28.185Z,8.30
2018-11-23T16:00:02.539Z,8.30
2018-11-23T16:02:36.798Z,8.30
2018-11-23T16:05:11.754Z,8.30
2018-11-23T16:07:46.120Z,8.30
2018-11-23T16:10:26.938Z,8.30
2018-11-23T16:13:02.313Z,8.30
2018-11-23T16:15:36.858Z,8.30
2018-11-23T16:18:11.578Z,8.30
2018-11-23T16:20:46.635Z,8.30
2018-11-23T16:23:21.626Z,8.30
2018-11-23T16:25:55.841Z,8.30
2018-11-23T16:28:30.139Z,8.30
2018-11-23T16:31:04.511Z,8.30
2018-11-23T16:33:38.755Z,8.30
2018-11-23T16:36:13.031Z,8.30
2018-11-23T16:38:47.279Z,8.30
2018-11-23T16:41:21.526Z,8.30
2018-11-23T16:43:55.784Z,8.30
2018-11-23T16:46:30.059Z,8.30
2018-11-23T16:49:04.367Z,8.30
2018-11-23T16:51:38.603Z,8.30
2018-11-23T16:54:12.918Z,8.30
2018-11-23T16:56:47.183Z,8.30
2018-11-23T16:59:21.523Z,8.30
2018-11-23T17:01:55.755Z,8.30
2018-11-23T17:04:30.007Z,8.40
2018-11-23T17:07:04.276Z,8.40
2018-11-23T17:09:38.530Z,8.40
2018-11-23T17:12:12.775Z,8.40
2018-11-23T17:14:47.006Z,8.50
2018-11-23T17:17:21.563Z,8.50
2018-11-23T17:19:55.821Z,8.40
2018-11-23T17:22:30.096Z,8.50
2018-11-23T17:25:04.921Z,8.50
2018-11-23T17:27:39.594Z,8.50
2018-11-23T17:30:16.508Z,8.50
2018-11-23T17:32:50.797Z,8.50
2018-11-23T17:35:25.177Z,8.60
2018-11-23T17:37:59.417Z,8.60
2018-11-23T17:40:35.659Z,8.60
2018-11-23T17:43:10.279Z,8.60
2018-11-23T17:45:44.547Z,8.60
2018-11-23T17:48:18.790Z,8.60
2018-11-23T17:50:55.235Z,8.60
2018-11-23T17:53:29.472Z,8.60
2018-11-23T17:56:03.746Z,8.60
2018-11-23T17:58:37.996Z,8.60
2018-11-23T18:01:12.227Z,8.50
2018-11-23T18:03:46.528Z,8.50
2018-11-23T18:06:20.844Z,8.50
2018-11-23T18:08:55.102Z,8.50
2018-11-23T18:11:29.350Z,8.40
2018-11-23T18:14:03.646Z,8.40
2018-11-23T18:16:37.880Z,8.50
2018-11-23T18:19:12.206Z,8.40
2018-11-23T18:21:46.444Z,8.40
2018-11-23T18:24:20.683Z,8.40
2018-11-23T18:26:54.955Z,8.50
2018-11-23T18:29:29.263Z,8.50
2018-11-23T18:32:03.524Z,8.40
2018-11-23T18:34:37.771Z,8.40
2018-11-23T18:37:12.003Z,8.40
2018-11-23T18:39:46.328Z,8.40
2018-11-23T18:42:20.615Z,8.40
2018-11-23T18:44:54.863Z,8.40
2018-11-23T18:47:29.107Z,8.50
2018-11-23T18:50:03.387Z,8.50
2018-11-23T18:52:37.638Z,8.50
2018-11-23T18:55:17.977Z,8.60
2018-11-23T18:57:47.022Z,8.60
2018-11-23T19:00:21.306Z,8.70
2018-11-23T19:02:55.567Z,8.70
2018-11-23T19:05:29.839Z,8.70
2018-11-23T19:08:04.134Z,8.70
2018-11-23T19:10:38.438Z,8.70
2018-11-23T19:13:12.728Z,8.70
2018-11-23T19:15:46.990Z,8.70
2018-11-23T19:18:21.214Z,8.70
2018-11-23T19:20:55.470Z,8.70
2018-11-23T19:23:29.734Z,8.80
2018-11-23T19:26:04.021Z,8.80
2018-11-23T19:28:38.329Z,8.80
2018-11-23T19:31:12.563Z,8.70
2018-11-23T19:33:46.901Z,8.70
2018-11-23T19:36:21.191Z,8.70
2018-11-23T19:38:55.517Z,8.60
2018-11-23T19:41:29.811Z,8.60
2018-11-23T19:44:04.117Z,8.60
2018-11-23T19:46:38.366Z,8.70
2018-11-23T19:49:12.690Z,8.70
2018-11-23T19:51:46.963Z,8.70
2018-11-23T19:54:21.216Z,8.70
2018-11-23T19:56:55.502Z,8.70
2018-11-23T19:59:29.823Z,8.70
2018-11-23T20:02:04.173Z,8.80
2018-11-23T20:04:39.366Z,8.80
2018-11-23T20:07:13.647Z,8.80
2018-11-23T20:09:48.060Z,8.80
2018-11-23T20:12:22.419Z,8.80
2018-11-23T20:14:56.766Z,8.80
2018-11-23T20:17:31.063Z,8.80
2018-11-23T20:20:07.167Z,8.80
2018-11-23T20:22:41.773Z,8.80
2018-11-23T20:25:17.447Z,8.80
2018-11-23T20:27:52.515Z,8.80
2018-11-23T20:30:26.794Z,8.80
2018-11-23T20:33:01.120Z,8.80
2018-11-23T20:35:35.479Z,8.80
2018-11-23T20:38:09.836Z,8.70
2018-11-23T20:40:44.122Z,8.70
2018-11-23T20:43:18.431Z,8.70
2018-11-23T20:45:52.793Z,8.70
2018-11-23T20:48:27.082Z,8.70
2018-11-23T20:51:01.311Z,8.70
2018-11-23T20:53:35.793Z,8.70
2018-11-23T20:56:10.071Z,8.70
2018-11-23T20:58:44.348Z,8.70
2018-11-23T21:01:18.606Z,8.60
2018-11-23T21:03:52.917Z,8.60
2018-11-23T21:06:27.167Z,8.50
2018-11-23T21:09:01.748Z,8.50
2018-11-23T21:11:36.002Z,8.40
2018-11-23T21:14:10.273Z,8.40
2018-11-23T21:16:44.506Z,8.30
2018-11-23T21:19:18.738Z,8.30
2018-11-23T21:21:52.975Z,8.30
2018-11-23T21:24:27.223Z,8.30
2018-11-23T21:27:01.455Z,8.30
2018-11-23T21:29:35.721Z,8.30
2018-11-23T21:32:09.974Z,8.30
2018-11-23T21:34:44.214Z,8.20
2018-11-23T21:37:18.478Z,8.20
2018-11-23T21:39:52.759Z,8.20
2018-11-23T21:42:26.988Z,8.20
2018-11-23T21:45:01.235Z,8.10
2018-11-23T21:47:35.474Z,8.10
2018-11-23T21:50:25.140Z,8.10
2018-11-23T21:52:52.608Z,8.10
2018-11-23T21:55:26.854Z,8.00
2018-11-23T21:58:01.111Z,8.00
2018-11-23T22:00:35.339Z,8.00
2018-11-23T22:03:09.595Z,8.00
2018-11-23T22:05:43.840Z,8.10
2018-11-23T22:08:18.116Z,8.10
2018-11-23T22:10:52.418Z,8.10
2018-11-23T22:13:26.637Z,8.10
2018-11-23T22:16:00.899Z,8.10
2018-11-23T22:18:35.122Z,8.10
2018-11-23T22:21:09.435Z,8.20
2018-11-23T22:23:43.694Z,8.20
2018-11-23T22:26:17.958Z,8.20
2018-11-23T22:28:52.192Z,8.20
2018-11-23T22:31:26.435Z,8.20
2018-11-23T22:34:00.731Z,8.20
2018-11-23T22:36:34.998Z,8.10
2018-11-23T22:39:09.731Z,8.10
2018-11-23T22:41:44.305Z,8.00
2018-11-23T22:44:18.542Z,8.00
2018-11-23T22:46:52.787Z,7.90
2018-11-23T22:49:27.026Z,7.90
2018-11-23T22:52:01.269Z,7.90
2018-11-23T22:54:35.530Z,7.90
2018-11-23T22:57:11.774Z,7.90
2018-11-23T22:59:44.036Z,7.90
2018-11-23T23:02:18.280Z,7.90
2018-11-23T23:04:52.574Z,7.90
2018-11-23T23:07:26.868Z,8.00
2018-11-23T23:10:01.120Z,7.90
2018-11-23T23:12:35.440Z,7.90
2018-11-23T23:15:10.984Z,7.90
2018-11-23T23:17:45.319Z,7.90
2018-11-23T23:20:22.578Z,7.80
2018-11-23T23:22:56.841Z,7.90
2018-11-23T23:25:31.119Z,7.90
2018-11-23T23:28:05.498Z,7.90
2018-11-23T23:30:39.779Z,7.90
2018-11-23T23:33:14.064Z,7.90
2018-11-23T23:35:48.350Z,7.90
2018-11-23T23:38:22.575Z,7.90
2018-11-23T23:40:56.827Z,7.80
2018-11-23T23:43:31.078Z,7.80
2018-11-23T23:46:05.373Z,7.80
2018-11-23T23:48:39.600Z,7.70
2018-11-23T23:51:13.865Z,7.70
2018-11-23T23:53:48.155Z,7.70
2018-11-23T23:56:22.414Z,7.60
2018-11-23T23:58:56.667Z,7.60
